Time;durP1;ratioP1;P1;durP2;ratioP2;P2;SDS_P1;SDS_P2;PMS_P1;PMS_P2;Temp;Humidity;BMP_temperature;BMP_pressure;BME280_temperature;BME280_humidity;BME280_pressure;Samples;Min_cycle;Max_cycle;Signal;HPM_P1;HPM_P2
2022/09/25 00:00:51;;;;;;;;;;;;;;;7.40;96.78;97801.84;5018520;28;20513;-76
2022/09/25 00:03:18;;;;;;;0.05;0.05;;;;;;;7.40;96.75;97796.41;5027478;28;20380;-77
2022/09/25 00:05:46;;;;;;;0.10;0.10;;;;;;;7.44;96.48;97797.41;5044981;28;20092;-76
2022/09/25 00:08:14;;;;;;;0.10;0.10;;;;;;;7.46;96.42;97803.34;5046263;28;20054;-77
2022/09/25 00:10:41;;;;;;;0.40;0.10;;;;;;;7.48;96.55;97809.28;5044571;28;20052;-76
2022/09/25 00:13:08;;;;;;;;;;;;;;;7.39;96.71;97800.22;5039115;28;20053;-76
2022/09/25 00:15:34;;;;;;;0.10;0.10;;;;;;;7.21;97.00;97797.31;5052672;28;19931;-76
2022/09/25 00:18:00;;;;;;;0.00;0.00;;;;;;;7.20;97.07;97806.59;5065146;28;20048;-76
2022/09/25 00:20:26;;;;;;;0.10;0.10;;;;;;;7.24;97.48;97814.91;5064008;28;20044;-76
2022/09/25 00:22:53;;;;;;;0.10;0.10;;;;;;;7.28;97.81;97815.94;5065408;28;20480;-76
2022/09/25 00:25:20;;;;;;;0.10;0.10;;;;;;;7.27;97.87;97814.34;5057289;28;20037;-76
2022/09/25 00:27:49;;;;;;;0.00;0.00;;;;;;;7.24;97.93;97814.91;5043110;28;20076;-76
2022/09/25 00:30:16;;;;;;;0.10;0.10;;;;;;;7.15;98.02;97808.59;5044411;28;20079;-76
2022/09/25 00:32:42;;;;;;;0.43;0.10;;;;;;;7.07;98.12;97801.94;5043110;28;20071;-76
2022/09/25 00:35:08;;;;;;;0.10;0.10;;;;;;;7.02;97.98;97808.25;5042364;28;20519;-77
2022/09/25 00:37:35;;;;;;;0.10;0.10;;;;;;;7.07;98.31;97820.97;5041925;28;20057;-77
2022/09/25 00:40:04;;;;;;;0.00;0.00;;;;;;;7.08;98.39;97819.84;5044098;28;20087;-77
2022/09/25 00:42:31;;;;;;;0.00;0.00;;;;;;;7.07;98.43;97824.47;5043056;28;20053;-76
2022/09/25 00:44:59;;;;;;;0.00;0.00;;;;;;;7.09;98.25;97824.19;5045468;28;20053;-77
2022/09/25 00:47:43;;;;;;;0.00;0.00;;;;;;;7.09;98.42;97824.19;5047325;28;20140;-77
2022/09/25 00:50:18;;;;;;;0.00;0.00;;;;;;;7.02;98.18;97819.13;5027385;28;20063;-76
2022/09/25 00:52:46;;;;;;;0.00;0.00;;;;;;;7.07;98.07;97829.13;5044147;28;20471;-77
2022/09/25 00:55:13;;;;;;;0.00;0.00;;;;;;;7.09;98.05;97826.91;5045094;28;20053;-76
2022/09/25 00:57:45;;;;;;;0.10;0.10;;;;;;;7.07;97.91;97823.69;5044360;28;20052;-76
2022/09/25 01:00:13;;;;;;;0.00;0.00;;;;;;;7.03;97.60;97828.91;5027384;28;20060;-76
2022/09/25 01:02:41;;;;;;;;;;;;;;;7.03;97.76;97825.38;5042047;28;20331;-76
2022/09/25 01:05:10;;;;;;;0.00;0.00;;;;;;;7.03;97.90;97820.75;5040148;28;19931;-76
2022/09/25 01:07:39;;;;;;;0.28;0.10;;;;;;;7.05;97.83;97825.91;5028412;28;20095;-76
2022/09/25 01:10:07;;;;;;;0.10;0.10;;;;;;;6.99;97.86;97813.50;5044271;28;20068;-76
2022/09/25 01:12:39;;;;;;;0.10;0.10;;;;;;;7.03;97.89;97811.81;5047183;28;20045;-77
2022/09/25 01:15:08;;;;;;;0.10;0.10;;;;;;;7.19;98.18;97837.59;5028517;28;20053;-76
2022/09/25 01:17:40;;;;;;;0.00;0.00;;;;;;;7.24;98.25;97831.22;5031289;28;20055;-77
2022/09/25 01:20:18;;;;;;;0.10;0.10;;;;;;;7.26;98.17;97826.31;5010807;28;20532;-75
2022/09/25 01:22:57;;;;;;;0.00;0.00;;;;;;;7.30;98.06;97837.38;5042211;28;20041;-76
2022/09/25 01:25:33;;;;;;;0.10;0.10;;;;;;;7.31;97.95;97836.28;5043696;28;20543;-76
2022/09/25 01:28:16;;;;;;;0.00;0.00;;;;;;;7.33;97.71;97844.94;5042525;28;20496;-76
2022/09/25 01:30:50;;;;;;;0.10;0.10;;;;;;;7.30;97.36;97838.19;5043318;28;20136;-76
2022/09/25 01:33:22;;;;;;;0.10;0.10;;;;;;;7.32;97.26;97837.88;5044992;28;20049;-74
2022/09/25 01:35:55;;;;;;;0.00;0.00;;;;;;;7.33;97.26;97842.22;5045393;28;20052;-76
2022/09/25 01:38:30;;;;;;;0.00;0.00;;;;;;;7.39;97.09;97841.03;5043023;28;20063;-77
2022/09/25 01:41:03;;;;;;;0.25;0.10;;;;;;;7.35;96.77;97840.81;5061429;28;20048;-76
2022/09/25 01:43:35;;;;;;;0.10;0.10;;;;;;;7.38;96.99;97844.84;5062918;28;20045;-74
2022/09/25 01:46:08;;;;;;;0.10;0.10;;;;;;;7.33;96.73;97853.91;5063519;28;20080;-75
2022/09/25 01:48:37;;;;;;;0.15;0.10;;;;;;;7.29;96.63;97852.06;5064378;28;20052;-75
2022/09/25 01:51:08;;;;;;;0.10;0.10;;;;;;;7.20;96.26;97847.34;5047514;28;20438;-77
2022/09/25 01:53:40;;;;;;;0.10;0.10;;;;;;;7.11;96.21;97857.28;5043049;28;20139;-75
2022/09/25 01:56:11;;;;;;;0.10;0.10;;;;;;;7.07;96.36;97859.78;5043791;28;20059;-77
2022/09/25 01:58:44;;;;;;;0.10;0.10;;;;;;;7.05;96.14;97866.66;5041956;28;20140;-75
2022/09/25 02:01:21;;;;;;;0.10;0.10;;;;;;;7.02;96.10;97854.47;5041971;28;20534;-76
2022/09/25 02:03:50;;;;;;;0.10;0.10;;;;;;;7.02;96.04;97864.50;5040696;28;20049;-76
2022/09/25 02:06:19;;;;;;;0.00;0.00;;;;;;;7.04;96.22;97873.19;5042740;28;20403;-75
2022/09/25 02:08:51;;;;;;;0.00;0.00;;;;;;;6.97;96.24;97853.75;5044028;28;20110;-76
2022/09/25 02:11:19;;;;;;;0.10;0.10;;;;;;;7.08;96.23;97877.72;5044280;28;20148;-76
2022/09/25 02:13:49;;;;;;;0.10;0.10;;;;;;;7.04;96.00;97863.13;5042214;28;20076;-77
2022/09/25 02:16:21;;;;;;;0.10;0.10;;;;;;;7.03;95.75;97872.38;5046195;28;20423;-76
2022/09/25 02:21:43;;;;;;;0.03;0.03;;;;;;;6.69;95.77;97837.34;5049011;28;20605;-75
2022/09/25 02:24:19;;;;;;;0.10;0.10;;;;;;;6.99;96.06;97876.81;5046220;28;20389;-77
2022/09/25 02:26:46;;;;;;;0.00;0.00;;;;;;;7.00;96.04;97874.88;5027559;28;20049;-76
2022/09/25 02:29:14;;;;;;;;;;;;;;;7.05;96.19;97878.31;5045985;28;20545;-75
2022/09/25 02:31:46;;;;;;;0.00;0.00;;;;;;;7.01;95.73;97871.06;5048105;28;20022;-76
2022/09/25 02:34:12;;;;;;;0.10;0.10;;;;;;;7.02;95.60;97878.91;5068277;28;20396;-76
2022/09/25 02:36:38;;;;;;;0.10;0.10;;;;;;;7.01;95.66;97881.91;5067945;28;20067;-76
2022/09/25 02:39:06;;;;;;;0.00;0.00;;;;;;;7.01;95.76;97879.19;5067186;28;20143;-77
2022/09/25 02:41:54;;;;;;;0.00;0.00;;;;;;;7.03;95.74;97879.75;5066958;28;20052;-77
2022/09/25 02:44:31;;;;;;;0.00;0.00;;;;;;;7.05;96.02;97891.13;5061393;28;20139;-75
2022/09/25 02:47:12;;;;;;;0.00;0.00;;;;;;;7.04;95.41;97895.72;5066055;28;20083;-76
2022/09/25 02:49:47;;;;;;;0.10;0.10;;;;;;;7.02;95.60;97892.50;5063681;28;20147;-77
2022/09/25 02:52:19;;;;;;;0.03;0.03;;;;;;;7.07;95.52;97891.63;5048956;28;20505;-76
2022/09/25 02:54:52;;;;;;;0.10;0.10;;;;;;;7.04;95.24;97897.66;5065546;28;20048;-76
2022/09/25 02:57:24;;;;;;;0.00;0.00;;;;;;;6.98;95.03;97899.66;5066777;28;20408;-75
2022/09/25 02:59:54;;;;;;;0.00;0.00;;;;;;;6.95;95.02;97897.53;5068892;28;20496;-77
2022/09/25 03:02:24;;;;;;;0.10;0.10;;;;;;;6.87;95.24;97884.63;5067207;28;20048;-75
2022/09/25 03:04:51;;;;;;;0.10;0.10;;;;;;;6.96;94.82;97899.16;5065486;28;20565;-76
2022/09/25 03:07:18;;;;;;;0.10;0.10;;;;;;;6.93;94.92;97897.81;5066795;28;20067;-76
2022/09/25 03:09:47;;;;;;;0.10;0.10;;;;;;;6.82;94.88;97909.94;5068387;28;20040;-76
2022/09/25 03:12:14;;;;;;;0.00;0.00;;;;;;;6.81;95.30;97909.16;5048287;28;20110;-76
2022/09/25 03:14:40;;;;;;;0.10;0.10;;;;;;;6.83;95.44;97913.47;5066416;28;20048;-77
2022/09/25 03:17:09;;;;;;;0.00;0.00;;;;;;;6.79;95.27;97913.25;5066534;28;20048;-75
2022/09/25 03:19:37;;;;;;;0.10;0.10;;;;;;;6.73;95.05;97915.25;5066185;28;20055;-75
2022/09/25 03:22:12;;;;;;;0.10;0.10;;;;;;;6.66;95.01;97918.34;5062776;28;20044;-76
2022/09/25 03:24:38;;;;;;;0.00;0.00;;;;;;;6.65;94.86;97927.59;5067027;28;20543;-76
2022/09/25 03:27:04;;;;;;;0.10;0.10;;;;;;;6.59;94.61;97920.63;5062060;28;20040;-78
2022/09/25 03:29:30;;;;;;;0.00;0.00;;;;;;;6.56;94.77;97915.78;5066160;28;20040;-76
2022/09/25 03:31:56;;;;;;;0.10;0.10;;;;;;;6.53;94.48;97925.31;5065336;28;20490;-76
2022/09/25 03:34:22;;;;;;;0.00;0.00;;;;;;;6.49;94.50;97927.03;5068457;28;20076;-76
2022/09/25 03:36:50;;;;;;;0.10;0.10;;;;;;;6.44;94.71;97921.63;5061106;28;20045;-75
2022/09/25 03:39:19;;;;;;;;;;;;;;;6.48;94.96;97938.97;5047723;28;20045;-76
2022/09/25 03:41:46;;;;;;;0.10;0.10;;;;;;;6.48;95.06;97938.16;5030412;28;19925;-76
2022/09/25 03:44:12;;;;;;;0.00;0.00;;;;;;;6.49;95.45;97939.78;5045192;28;20049;-74
2022/09/25 03:46:39;;;;;;;0.10;0.10;;;;;;;6.52;95.66;97936.47;5046543;28;20037;-76
2022/09/25 03:49:05;;;;;;;0.10;0.10;;;;;;;6.52;95.95;97942.72;5044164;28;20044;-75
2022/09/25 03:51:32;;;;;;;0.10;0.10;;;;;;;6.53;96.06;97946.22;5045554;28;20057;-77
2022/09/25 03:54:02;;;;;;;0.00;0.00;;;;;;;6.54;96.30;97947.84;5044489;28;20053;-77
2022/09/25 03:56:29;;;;;;;0.10;0.10;;;;;;;6.57;96.06;97946.44;5027807;28;20076;-77
2022/09/25 03:58:56;;;;;;;0.00;0.00;;;;;;;6.58;96.24;97954.31;5046704;28;20053;-76
2022/09/25 04:01:23;;;;;;;0.17;0.10;;;;;;;6.65;96.28;97953.94;5060813;28;20511;-74
2022/09/25 04:03:50;;;;;;;0.10;0.10;;;;;;;6.67;95.85;97954.47;5051858;28;20059;-76
2022/09/25 04:06:20;;;;;;;0.10;0.10;;;;;;;6.61;95.61;97947.47;5046393;28;20111;-76
2022/09/25 04:08:47;;;;;;;0.10;0.10;;;;;;;6.72;95.40;97962.53;5028316;28;20675;-75
2022/09/25 04:11:16;;;;;;;0.00;0.00;;;;;;;6.75;95.27;97970.06;4989934;28;20045;-76
2022/09/25 04:13:43;;;;;;;0.10;0.10;;;;;;;6.70;94.82;97961.19;5025577;28;20136;-75
2022/09/25 04:16:09;;;;;;;;;;;;;;;6.72;94.86;97973.38;5021580;28;20520;-76
2022/09/25 04:18:36;;;;;;;0.00;0.00;;;;;;;6.74;94.86;97975.81;5035458;28;19968;-76
2022/09/25 04:21:05;;;;;;;0.00;0.00;;;;;;;6.75;94.28;97975.50;5025461;28;20730;-77
2022/09/25 04:23:31;;;;;;;0.10;0.10;;;;;;;6.76;94.24;97979.06;5022405;28;20505;-76
2022/09/25 04:25:58;;;;;;;0.00;0.00;;;;;;;6.76;94.17;97982.56;5025579;28;20049;-76
2022/09/25 04:28:26;;;;;;;0.10;0.10;;;;;;;6.71;94.15;97981.81;5039515;28;20539;-77
2022/09/25 04:30:52;;;;;;;0.00;0.00;;;;;;;6.69;94.27;97987.56;5065649;28;20453;-76
2022/09/25 04:36:04;;;;;;;0.00;0.00;;;;;;;6.56;94.31;97991.00;5026329;28;20398;-74
2022/09/25 04:38:31;;;;;;;0.10;0.10;;;;;;;6.51;94.67;97987.25;5042722;28;20048;-77
2022/09/25 04:40:58;;;;;;;0.00;0.00;;;;;;;6.50;94.76;97999.22;5042159;28;20106;-77
2022/09/25 04:43:28;;;;;;;0.10;0.10;;;;;;;6.47;94.87;97996.28;5055571;28;20040;-76
2022/09/25 04:45:54;;;;;;;0.00;0.00;;;;;;;6.38;95.32;98002.34;5064682;28;20136;-76
2022/09/25 04:48:20;;;;;;;0.10;0.10;;;;;;;6.31;95.70;98012.75;5063708;28;20062;-77
2022/09/25 04:50:48;;;;;;;0.10;0.10;;;;;;;6.26;96.22;97998.44;5065364;28;20071;-76
2022/09/25 04:53:14;;;;;;;0.00;0.00;;;;;;;6.27;96.48;98005.47;5060325;28;20044;-76
2022/09/25 04:55:40;;;;;;;0.00;0.00;;;;;;;6.27;96.65;98016.34;5045617;28;20442;-77
2022/09/25 04:58:06;;;;;;;0.10;0.10;;;;;;;6.27;97.08;98016.34;5063531;28;20045;-75
2022/09/25 05:00:35;;;;;;;0.10;0.10;;;;;;;6.25;97.32;98011.22;5044723;28;20068;-75
2022/09/25 05:03:02;;;;;;;0.00;0.00;;;;;;;6.19;97.48;98026.75;5063232;28;20423;-75
2022/09/25 05:05:29;;;;;;;0.10;0.10;;;;;;;6.16;97.92;98021.09;5060309;28;20132;-75
2022/09/25 05:07:56;;;;;;;0.00;0.00;;;;;;;6.12;98.00;98026.28;5055222;28;20106;-76
2022/09/25 05:10:26;;;;;;;0.10;0.10;;;;;;;6.17;98.25;98033.56;5042203;28;20217;-76
2022/09/25 05:12:54;;;;;;;0.10;0.10;;;;;;;6.19;98.30;98025.94;5042223;28;20087;-74
2022/09/25 05:15:20;;;;;;;0.10;0.10;;;;;;;6.26;98.51;98037.25;5025856;28;20052;-76
2022/09/25 05:17:48;;;;;;;0.10;0.10;;;;;;;6.30;98.39;98040.19;5046399;28;20055;-75
2022/09/25 05:20:14;;;;;;;0.10;0.10;;;;;;;6.29;98.06;98033.13;5044688;28;20049;-76
2022/09/25 05:22:40;;;;;;;0.05;0.05;;;;;;;6.35;97.86;98040.94;5044094;28;20049;-76
2022/09/25 05:25:08;;;;;;;0.10;0.10;;;;;;;6.36;97.63;98039.84;5039325;28;20140;-77
2022/09/25 05:27:34;;;;;;;0.10;0.10;;;;;;;6.44;96.93;98045.75;5042910;28;20077;-77
2022/09/25 05:30:01;;;;;;;0.00;0.00;;;;;;;6.44;96.53;98045.75;5045374;28;20094;-77
2022/09/25 05:32:29;;;;;;;0.05;0.05;;;;;;;6.38;95.93;98045.78;5027693;28;20059;-77
2022/09/25 05:34:57;;;;;;;0.00;0.00;;;;;;;6.43;95.79;98047.63;5045028;28;20106;-76
2022/09/25 05:37:23;;;;;;;;;;;;;;;6.43;95.68;98054.97;5044999;28;20460;-76
2022/09/25 05:39:49;;;;;;;0.10;0.10;;;;;;;6.46;95.37;98057.91;5026289;28;20015;-77
2022/09/25 05:42:18;;;;;;;0.00;0.00;;;;;;;6.33;94.93;98048.56;5035562;28;20052;-76
2022/09/25 05:44:44;;;;;;;0.10;0.10;;;;;;;6.38;94.99;98067.50;5041704;28;20079;-77
2022/09/25 05:47:10;;;;;;;0.10;0.10;;;;;;;6.38;94.66;98066.72;5043031;28;20069;-76
2022/09/25 05:49:36;;;;;;;0.10;0.10;;;;;;;6.31;94.69;98066.22;5047584;28;20075;-76
2022/09/25 05:52:04;;;;;;;0.10;0.10;;;;;;;6.27;94.77;98068.72;5042349;28;20558;-76
2022/09/25 05:54:30;;;;;;;0.00;0.00;;;;;;;6.23;94.85;98064.97;5041318;28;20051;-76
2022/09/25 05:56:56;;;;;;;0.10;0.10;;;;;;;6.22;94.91;98076.91;5041244;28;20098;-77
2022/09/25 05:59:22;;;;;;;0.10;0.10;;;;;;;6.24;94.99;98075.53;5039984;28;20040;-76
2022/09/25 06:01:50;;;;;;;0.10;0.10;;;;;;;6.37;95.68;98082.16;4674505;28;10000345;-77
2022/09/25 06:04:16;;;;;;;0.00;0.00;;;;;;;6.49;95.65;98083.69;5021645;28;20045;-77
2022/09/25 06:06:42;;;;;;;0.00;0.00;;;;;;;6.47;95.23;98086.66;5037155;28;20073;-77
2022/09/25 06:09:10;;;;;;;0.00;0.00;;;;;;;6.53;95.36;98082.00;5038536;28;20326;-77
2022/09/25 06:11:36;;;;;;;0.10;0.10;;;;;;;6.49;94.60;98086.38;5022976;28;20080;-77
2022/09/25 06:14:03;;;;;;;0.10;0.10;;;;;;;6.57;94.51;98083.06;5036937;28;20467;-77
2022/09/25 06:16:29;;;;;;;0.10;0.10;;;;;;;6.67;94.00;98098.41;5038901;28;20115;-77
2022/09/25 06:18:56;;;;;;;0.10;0.10;;;;;;;6.75;93.61;98089.59;5005018;28;20040;-77
2022/09/25 06:21:22;;;;;;;0.10;0.10;;;;;;;6.94;92.92;98088.81;5038095;28;20060;-77
2022/09/25 06:23:48;;;;;;;0.10;0.10;;;;;;;7.06;92.26;98094.63;5040913;28;20053;-76
2022/09/25 06:26:16;;;;;;;0.10;0.10;;;;;;;7.27;91.86;98096.25;5036056;28;20047;-77
2022/09/25 06:28:42;;;;;;;0.10;0.10;;;;;;;7.42;91.19;98100.66;5034994;28;20047;-77
2022/09/25 06:31:08;;;;;;;0.10;0.10;;;;;;;7.54;90.67;98105.63;5036193;28;20472;-77
2022/09/25 06:33:36;;;;;;;0.10;0.10;;;;;;;7.55;89.37;98104.53;5036408;28;20041;-76
2022/09/25 06:36:04;;;;;;;0.10;0.10;;;;;;;7.51;88.63;98099.69;5003970;28;20369;-75
2022/09/25 06:38:34;;;;;;;1.70;0.45;;;;;;;7.62;88.53;98105.78;5035779;28;20049;-75
2022/09/25 06:41:00;;;;;;;0.10;0.10;;;;;;;7.87;88.29;98113.81;5035951;28;20067;-76
2022/09/25 06:43:29;;;;;;;0.10;0.10;;;;;;;7.93;87.79;98116.16;5037464;28;20344;-76
2022/09/25 06:45:59;;;;;;;0.10;0.10;;;;;;;7.95;87.67;98124.00;5037892;28;20348;-76
2022/09/25 06:48:26;;;;;;;0.20;0.10;;;;;;;7.79;87.79;98113.38;5034738;28;20417;-76
2022/09/25 06:50:54;;;;;;;0.10;0.10;;;;;;;7.78;87.68;98128.06;5035686;28;20844;-75
2022/09/25 06:53:21;;;;;;;0.10;0.10;;;;;;;7.56;86.34;98125.97;5020384;28;20049;-75
2022/09/25 06:55:48;;;;;;;0.10;0.10;;;;;;;7.46;86.79;98126.94;5035845;28;20040;-76
2022/09/25 06:58:18;;;;;;;0.10;0.10;;;;;;;7.51;87.40;98135.06;5037490;28;20109;-75
2022/09/25 07:00:47;;;;;;;0.10;0.10;;;;;;;7.42;87.33;98122.41;5036855;28;20060;-76
2022/09/25 07:05:59;;;;;;;0.10;0.10;;;;;;;7.43;86.97;98124.03;5042280;28;20626;-76
2022/09/25 07:08:25;;;;;;;0.10;0.10;;;;;;;7.53;86.83;98140.19;5037075;28;20052;-76
2022/09/25 07:10:53;;;;;;;0.10;0.10;;;;;;;7.50;86.47;98138.88;5041627;28;20052;-76
2022/09/25 07:13:23;;;;;;;0.10;0.10;;;;;;;7.56;86.75;98139.56;5021574;28;20057;-75
2022/09/25 07:15:54;;;;;;;0.10;0.10;;;;;;;7.63;86.20;98145.47;5042055;28;20075;-76
2022/09/25 07:18:22;;;;;;;0.10;0.10;;;;;;;7.66;85.62;98154.97;5040322;28;20296;-75
2022/09/25 07:20:48;;;;;;;0.10;0.10;;;;;;;7.69;85.63;98162.53;5039332;28;20611;-75
2022/09/25 07:23:15;;;;;;;0.10;0.10;;;;;;;7.57;85.09;98148.56;5040455;28;20086;-76
2022/09/25 07:25:42;;;;;;;0.10;0.10;;;;;;;7.70;85.35;98164.13;5039417;28;20037;-75
2022/09/25 07:28:11;;;;;;;0.10;0.10;;;;;;;7.81;85.36;98167.50;5042585;28;20041;-76
2022/09/25 07:30:37;;;;;;;0.10;0.10;;;;;;;7.80;85.24;98161.25;5039567;28;20068;-76
2022/09/25 07:33:05;;;;;;;0.10;0.10;;;;;;;7.94;85.22;98172.19;5023701;28;20072;-76
2022/09/25 07:35:33;;;;;;;0.10;0.10;;;;;;;8.03;84.96;98174.22;5036188;28;20059;-75
2022/09/25 07:37:59;;;;;;;;;;;;;;;8.09;84.43;98179.28;5040061;28;20099;-76
2022/09/25 07:40:27;;;;;;;0.10;0.10;;;;;;;8.04;83.40;98187.53;5006327;28;19939;-76
2022/09/25 07:42:57;;;;;;;0.15;0.10;;;;;;;8.01;83.49;98184.59;5039614;28;20095;-77
2022/09/25 07:45:24;;;;;;;0.10;0.10;;;;;;;8.00;83.44;98188.44;5038285;28;20048;-76
2022/09/25 07:47:50;;;;;;;0.10;0.10;;;;;;;8.00;83.50;98191.97;5035019;28;20052;-76
2022/09/25 07:50:18;;;;;;;0.10;0.10;;;;;;;8.07;83.47;98194.31;5039868;28;20522;-76
2022/09/25 07:52:43;;;;;;;;;;;;;;;7.98;83.32;98177.03;5040638;28;20110;-77
2022/09/25 07:55:10;;;;;;;0.10;0.10;;;;;;;8.08;82.72;98204.88;5037615;28;19929;-76
2022/09/25 07:57:36;;;;;;;0.10;0.10;;;;;;;8.07;82.68;98199.75;5041326;28;20052;-76
2022/09/25 08:00:04;;;;;;;0.10;0.10;;;;;;;8.03;82.12;98193.28;5037811;28;20041;-76
2022/09/25 08:02:37;;;;;;;0.10;0.10;;;;;;;8.07;82.44;98213.38;5036937;28;20123;-76
2022/09/25 08:05:04;;;;;;;0.10;0.10;;;;;;;8.11;82.24;98208.13;5023564;28;20295;-77
2022/09/25 08:07:32;;;;;;;0.10;0.10;;;;;;;8.18;82.17;98209.34;5036125;28;20045;-77
2022/09/25 08:09:58;;;;;;;;;;;;;;;8.15;82.12;98220.84;5040847;28;20132;-78
2022/09/25 08:12:25;;;;;;;0.10;0.10;;;;;;;8.08;82.49;98212.25;5038739;28;19929;-77
2022/09/25 08:14:51;;;;;;;0.30;0.10;;;;;;;8.01;82.66;98228.16;5036117;28;20045;-76
2022/09/25 08:17:18;;;;;;;0.10;0.10;;;;;;;7.99;83.25;98231.19;5037478;28;20314;-76
2022/09/25 08:19:44;;;;;;;0.10;0.10;;;;;;;7.91;83.65;98224.50;5042048;28;20526;-76
2022/09/25 08:22:10;;;;;;;0.10;0.10;;;;;;;7.79;84.23;98224.94;5043765;28;20311;-76
2022/09/25 08:24:38;;;;;;;0.10;0.10;;;;;;;7.86;84.50;98238.16;5048312;28;20586;-76
2022/09/25 08:27:06;;;;;;;0.10;0.10;;;;;;;7.77;84.40;98238.03;5042153;28;20044;-77
2022/09/25 08:29:32;;;;;;;0.10;0.10;;;;;;;7.72;84.55;98240.81;5039912;28;20044;-76
2022/09/25 08:31:58;;;;;;;0.10;0.10;;;;;;;7.76;84.67;98255.44;5023057;28;20041;-77
2022/09/25 08:34:24;;;;;;;0.10;0.10;;;;;;;7.79;84.28;98251.34;5039239;28;20504;-76
2022/09/25 08:36:50;;;;;;;0.10;0.10;;;;;;;7.79;84.13;98264.94;5044685;28;20117;-78
2022/09/25 08:39:17;;;;;;;0.10;0.10;;;;;;;7.80;84.38;98266.56;5036683;28;20045;-78
2022/09/25 08:41:48;;;;;;;0.10;0.10;;;;;;;7.77;84.08;98265.22;5007851;28;20064;-78
2022/09/25 08:44:21;;;;;;;0.10;0.10;;;;;;;7.66;83.73;98267.28;5023702;28;20136;-77
2022/09/25 08:49:40;;;;;;;0.10;0.10;;;;;;;7.63;83.64;98283.38;5035013;28;20514;-78
2022/09/25 08:52:12;;;;;;;0.10;0.10;;;;;;;7.62;83.24;98279.88;5039743;28;20144;-78
2022/09/25 08:54:42;;;;;;;0.10;0.10;;;;;;;7.65;83.33;98279.28;5040375;28;20079;-77
2022/09/25 08:57:20;;;;;;;0.10;0.10;;;;;;;7.80;83.21;98289.16;5025337;28;20095;-79
2022/09/25 08:59:54;;;;;;;0.10;0.10;;;;;;;7.96;83.13;98299.81;5039608;28;20068;-78
2022/09/25 09:02:22;;;;;;;0.10;0.10;;;;;;;8.11;82.56;98289.78;5045598;28;20701;-78
2022/09/25 09:04:52;;;;;;;0.10;0.10;;;;;;;8.32;82.33;98304.72;5043566;28;20072;-78
2022/09/25 09:07:24;;;;;;;0.10;0.10;;;;;;;8.49;81.73;98306.09;5044048;28;20130;-78
2022/09/25 09:09:55;;;;;;;0.10;0.10;;;;;;;8.55;81.08;98298.69;5038729;28;20049;-76
2022/09/25 09:12:32;;;;;;;0.10;0.10;;;;;;;8.67;80.62;98307.19;5038625;28;20662;-79
2022/09/25 09:15:14;;;;;;;0.10;0.10;;;;;;;8.71;80.39;98302.75;5040282;28;20092;-78
2022/09/25 09:17:42;;;;;;;0.10;0.10;;;;;;;8.63;79.25;98303.44;5043387;28;20206;-78
2022/09/25 09:20:15;;;;;;;0.10;0.10;;;;;;;8.46;78.70;98306.69;5040701;28;20045;-79
2022/09/25 09:22:46;;;;;;;0.10;0.10;;;;;;;8.41;78.48;98306.75;5042518;28;20068;-79
2022/09/25 09:25:24;;;;;;;0.10;0.10;;;;;;;8.40;78.53;98316.03;5040069;28;20053;-79
2022/09/25 09:28:12;;;;;;;0.10;0.10;;;;;;;8.42;78.12;98320.09;5039371;28;20071;-78
2022/09/25 09:30:47;;;;;;;0.10;0.10;;;;;;;8.61;78.07;98322.00;5038587;28;20052;-78
2022/09/25 09:33:28;;;;;;;0.10;0.10;;;;;;;8.56;76.98;98312.00;5038035;28;20419;-78
2022/09/25 09:36:04;;;;;;;0.10;0.10;;;;;;;8.57;76.42;98313.59;5036904;28;20056;-79
2022/09/25 09:38:40;;;;;;;0.10;0.10;;;;;;;8.83;76.21;98336.91;5040080;28;20067;-78
2022/09/25 09:41:20;;;;;;;0.10;0.10;;;;;;;8.95;75.60;98326.31;5037713;28;20087;-79
2022/09/25 09:44:05;;;;;;;0.10;0.10;;;;;;;9.04;74.55;98331.88;5039202;28;20064;-78
2022/09/25 09:46:39;;;;;;;0.10;0.10;;;;;;;9.08;74.48;98341.09;5040120;28;20047;-79
2022/09/25 09:49:15;;;;;;;0.10;0.10;;;;;;;9.16;74.01;98340.41;5032374;28;20049;-78
2022/09/25 09:51:48;;;;;;;0.10;0.10;;;;;;;9.21;73.95;98337.59;5019402;28;20053;-75
2022/09/25 09:54:21;;;;;;;0.10;0.10;;;;;;;9.17;73.57;98338.50;5038896;28;20040;-75
2022/09/25 09:56:54;;;;;;;0.10;0.10;;;;;;;9.07;73.89;98348.47;5010201;28;20296;-75
2022/09/25 09:59:38;;;;;;;0.10;0.10;;;;;;;9.00;74.10;98339.88;5028443;28;20892;-75
2022/09/25 10:02:36;;;;;;;0.10;0.10;;;;;;;8.90;74.50;98340.88;5049345;28;20035;-78
2022/09/25 10:05:08;;;;;;;0.10;0.10;;;;;;;8.88;74.77;98348.50;5032018;28;20131;-77
2022/09/25 10:07:39;;;;;;;0.10;0.10;;;;;;;8.88;74.61;98359.41;5023511;28;20044;-80
2022/09/25 10:10:12;;;;;;;0.20;0.20;;;;;;;8.92;74.48;98346.84;5038319;28;20126;-75
2022/09/25 10:12:42;;;;;;;0.20;0.20;;;;;;;9.12;74.56;98355.75;5042406;28;20139;-75
2022/09/25 10:15:17;;;;;;;0.10;0.10;;;;;;;9.21;74.05;98340.31;5039609;28;20341;-79
2022/09/25 10:17:44;;;;;;;0.17;0.17;;;;;;;9.27;73.02;98343.72;5039450;28;20052;-79
2022/09/25 10:20:16;;;;;;;0.13;0.13;;;;;;;9.24;73.53;98360.72;5039146;28;20052;-78
2022/09/25 10:22:45;;;;;;;0.13;0.13;;;;;;;9.11;73.99;98359.59;5039144;28;20040;-78
2022/09/25 10:25:12;;;;;;;0.10;0.10;;;;;;;9.00;74.62;98360.88;5037831;28;20049;-75
2022/09/25 10:27:42;;;;;;;0.10;0.10;;;;;;;8.97;74.73;98361.47;5038997;28;20355;-75
2022/09/25 10:30:19;;;;;;;0.10;0.10;;;;;;;8.81;74.72;98361.72;5043654;28;20045;-76
2022/09/25 10:32:56;;;;;;;0.10;0.10;;;;;;;8.77;74.28;98368.91;5027577;28;20053;-76
2022/09/25 10:35:26;;;;;;;0.10;0.10;;;;;;;8.67;74.95;98369.88;5044841;28;20052;-80
2022/09/25 10:37:53;;;;;;;0.10;0.10;;;;;;;8.57;75.36;98373.53;5046409;28;20056;-78
2022/09/25 10:40:27;;;;;;;0.10;0.10;;;;;;;8.45;75.38;98348.66;5046306;28;20262;-78
2022/09/25 10:43:16;;;;;;;0.10;0.10;;;;;;;8.69;75.80;98386.72;5047516;28;20099;-78
2022/09/25 10:45:44;;;;;;;0.10;0.10;;;;;;;8.73;75.43;98379.56;5027378;28;20041;-80
2022/09/25 10:51:20;;;;;;;0.10;0.10;;;;;;;8.74;75.68;98392.09;5037942;28;20413;-80
2022/09/25 10:53:47;;;;;;;0.10;0.10;;;;;;;8.72;75.79;98388.03;5045299;28;20129;-79
2022/09/25 10:56:34;;;;;;;0.20;0.20;;;;;;;8.76;75.89;98386.34;5026431;28;20299;-79
2022/09/25 10:59:01;;;;;;;;;;;;;;;8.91;75.61;98391.56;5039136;28;20404;-79
2022/09/25 11:01:34;;;;;;;0.10;0.10;;;;;;;9.03;74.98;98393.81;5044585;28;19924;-79
2022/09/25 11:04:04;;;;;;;0.10;0.10;;;;;;;9.14;74.34;98391.69;5045953;28;20128;-79
2022/09/25 11:06:33;;;;;;;0.15;0.15;;;;;;;9.25;73.76;98391.53;5044267;28;20048;-80
2022/09/25 11:09:06;;;;;;;0.10;0.10;;;;;;;9.35;73.27;98392.16;5044697;28;20043;-79
2022/09/25 11:11:33;;;;;;;0.10;0.10;;;;;;;9.36;72.94;98390.22;5045826;28;20528;-80
2022/09/25 11:14:02;;;;;;;0.10;0.10;;;;;;;9.27;72.89;98395.56;5037176;28;20037;-79
2022/09/25 11:16:46;;;;;;;0.10;0.10;;;;;;;9.13;73.68;98401.00;5038939;28;20568;-79
2022/09/25 11:19:14;;;;;;;0.10;0.10;;;;;;;9.10;74.59;98406.22;5041214;28;20530;-79
2022/09/25 11:21:48;;;;;;;0.10;0.10;;;;;;;9.16;74.47;98405.84;5041986;28;20088;-80
2022/09/25 11:24:21;;;;;;;0.10;0.10;;;;;;;9.10;73.83;98382.50;5040606;28;20041;-79
2022/09/25 11:26:53;;;;;;;0.10;0.10;;;;;;;9.35;73.17;98416.69;5042152;28;20149;-79
2022/09/25 11:29:24;;;;;;;0.10;0.10;;;;;;;9.41;72.47;98408.41;5041421;28;20048;-80
2022/09/25 11:31:57;;;;;;;0.20;0.20;;;;;;;9.50;71.84;98412.88;5044106;28;20539;-79
2022/09/25 11:34:42;;;;;;;0.20;0.20;;;;;;;9.59;71.67;98410.25;5045701;28;20044;-80
2022/09/25 11:37:18;;;;;;;0.10;0.10;;;;;;;9.77;71.57;98413.22;5041823;28;20045;-78
2022/09/25 11:42:40;;;;;;;0.10;0.10;;;;;;;10.15;70.07;98406.72;5041382;28;20041;-79
2022/09/25 11:45:18;;;;;;;0.10;0.10;;;;;;;10.35;70.16;98425.38;5038085;28;20099;-80
2022/09/25 11:47:53;;;;;;;0.20;0.20;;;;;;;10.38;70.18;98426.69;5046667;28;20053;-80
2022/09/25 11:50:23;;;;;;;0.20;0.20;;;;;;;10.38;69.74;98418.50;5043721;28;20049;-79
2022/09/25 11:53:02;;;;;;;0.10;0.10;;;;;;;10.39;69.20;98432.97;5044229;28;20321;-80
2022/09/25 11:55:46;;;;;;;0.10;0.10;;;;;;;10.16;69.88;98432.91;5041227;28;20041;-80
2022/09/25 11:58:32;;;;;;;0.10;0.10;;;;;;;9.88;70.42;98432.91;5007657;28;20057;-79
2022/09/25 12:01:05;;;;;;;0.15;0.15;;;;;;;9.68;70.67;98429.47;5036483;28;20045;-80
2022/09/25 12:03:50;;;;;;;0.10;0.10;;;;;;;9.56;72.09;98437.34;5043083;28;20044;-79
2022/09/25 12:06:28;;;;;;;0.10;0.10;;;;;;;9.45;72.43;98437.53;5046117;28;20045;-81
2022/09/25 12:09:11;;;;;;;0.10;0.10;;;;;;;9.33;73.19;98440.75;5040658;28;20556;-80
2022/09/25 12:11:47;;;;;;;0.10;0.10;;;;;;;9.16;73.37;98435.03;5037323;28;20528;-80
2022/09/25 12:14:21;;;;;;;0.10;0.10;;;;;;;9.03;74.12;98431.97;5037171;28;20041;-80